sensor_id;sensor_type;location;lat;lon;timestamp;P1;durP1;ratioP1;P2;durP2;ratioP2
61358;SDS011;47228;46.762;23.598;2024-03-02T00:01:45;10.60;;;5.40;;
61358;SDS011;47228;46.762;23.598;2024-03-02T00:04:13;10.30;;;5.30;;
61358;SDS011;47228;46.762;23.598;2024-03-02T00:06:41;10.30;;;4.60;;
61358;SDS011;47228;46.762;23.598;2024-03-02T00:09:10;11.70;;;5.40;;
61358;SDS011;47228;46.762;23.598;2024-03-02T00:11:41;12.80;;;5.70;;
61358;SDS011;47228;46.762;23.598;2024-03-02T00:14:10;13.20;;;6.20;;
61358;SDS011;47228;46.762;23.598;2024-03-02T00:16:40;14.80;;;6.70;;
61358;SDS011;47228;46.762;23.598;2024-03-02T00:19:09;13.50;;;6.30;;
61358;SDS011;47228;46.762;23.598;2024-03-02T00:21:37;14.20;;;6.40;;
61358;SDS011;47228;46.762;23.598;2024-03-02T00:24:07;11.70;;;6.00;;
61358;SDS011;47228;46.762;23.598;2024-03-02T00:26:47;10.80;;;6.00;;
61358;SDS011;47228;46.762;23.598;2024-03-02T00:29:15;13.10;;;5.70;;
61358;SDS011;47228;46.762;23.598;2024-03-02T00:31:47;11.20;;;5.30;;
61358;SDS011;47228;46.762;23.598;2024-03-02T00:34:16;12.90;;;5.90;;
61358;SDS011;47228;46.762;23.598;2024-03-02T00:36:45;12.60;;;5.60;;
61358;SDS011;47228;46.762;23.598;2024-03-02T00:39:16;11.80;;;5.40;;
61358;SDS011;47228;46.762;23.598;2024-03-02T00:41:46;11.90;;;5.90;;
61358;SDS011;47228;46.762;23.598;2024-03-02T00:44:15;13.20;;;5.60;;
61358;SDS011;47228;46.762;23.598;2024-03-02T00:46:46;12.10;;;5.00;;
61358;SDS011;47228;46.762;23.598;2024-03-02T00:49:21;12.10;;;5.60;;
61358;SDS011;47228;46.762;23.598;2024-03-02T00:51:51;10.90;;;4.90;;
61358;SDS011;47228;46.762;23.598;2024-03-02T00:54:22;10.50;;;5.10;;
61358;SDS011;47228;46.762;23.598;2024-03-02T00:56:52;10.70;;;5.00;;
61358;SDS011;47228;46.762;23.598;2024-03-02T00:59:25;10.60;;;5.40;;
61358;SDS011;47228;46.762;23.598;2024-03-02T01:01:53;14.20;;;6.10;;
61358;SDS011;47228;46.762;23.598;2024-03-02T01:04:22;10.70;;;5.10;;
61358;SDS011;47228;46.762;23.598;2024-03-02T01:06:50;10.00;;;5.20;;
61358;SDS011;47228;46.762;23.598;2024-03-02T01:09:18;14.60;;;5.60;;
61358;SDS011;47228;46.762;23.598;2024-03-02T01:11:47;13.30;;;5.60;;
61358;SDS011;47228;46.762;23.598;2024-03-02T01:14:15;14.90;;;5.60;;
61358;SDS011;47228;46.762;23.598;2024-03-02T01:16:43;9.40;;;5.20;;
61358;SDS011;47228;46.762;23.598;2024-03-02T01:19:11;14.40;;;6.00;;
61358;SDS011;47228;46.762;23.598;2024-03-02T01:21:39;10.80;;;5.40;;
61358;SDS011;47228;46.762;23.598;2024-03-02T01:24:07;10.60;;;5.60;;
61358;SDS011;47228;46.762;23.598;2024-03-02T01:26:35;14.90;;;5.60;;
61358;SDS011;47228;46.762;23.598;2024-03-02T01:29:04;13.10;;;5.60;;
61358;SDS011;47228;46.762;23.598;2024-03-02T01:31:32;17.20;;;6.00;;
61358;SDS011;47228;46.762;23.598;2024-03-02T01:34:00;12.60;;;6.20;;
61358;SDS011;47228;46.762;23.598;2024-03-02T01:36:28;12.60;;;6.20;;
61358;SDS011;47228;46.762;23.598;2024-03-02T01:38:56;12.30;;;5.30;;
61358;SDS011;47228;46.762;23.598;2024-03-02T01:41:25;11.00;;;5.20;;
61358;SDS011;47228;46.762;23.598;2024-03-02T01:43:53;14.10;;;6.60;;
61358;SDS011;47228;46.762;23.598;2024-03-02T01:46:22;12.50;;;6.20;;
61358;SDS011;47228;46.762;23.598;2024-03-02T01:48:50;12.50;;;5.80;;
61358;SDS011;47228;46.762;23.598;2024-03-02T01:51:18;14.90;;;6.00;;
61358;SDS011;47228;46.762;23.598;2024-03-02T01:53:46;12.50;;;5.40;;
61358;SDS011;47228;46.762;23.598;2024-03-02T01:56:14;10.70;;;5.30;;
61358;SDS011;47228;46.762;23.598;2024-03-02T01:58:42;12.90;;;5.90;;
61358;SDS011;47228;46.762;23.598;2024-03-02T02:01:12;11.50;;;5.80;;
61358;SDS011;47228;46.762;23.598;2024-03-02T02:03:40;12.70;;;6.50;;
61358;SDS011;47228;46.762;23.598;2024-03-02T02:06:08;12.40;;;5.90;;
61358;SDS011;47228;46.762;23.598;2024-03-02T02:08:37;15.80;;;5.80;;
61358;SDS011;47228;46.762;23.598;2024-03-02T02:11:05;13.30;;;5.80;;
61358;SDS011;47228;46.762;23.598;2024-03-02T02:13:34;13.50;;;6.00;;
61358;SDS011;47228;46.762;23.598;2024-03-02T02:16:06;12.10;;;5.80;;
61358;SDS011;47228;46.762;23.598;2024-03-02T02:18:34;12.60;;;6.00;;
61358;SDS011;47228;46.762;23.598;2024-03-02T02:21:06;13.50;;;6.30;;
61358;SDS011;47228;46.762;23.598;2024-03-02T02:23:34;13.50;;;5.80;;
61358;SDS011;47228;46.762;23.598;2024-03-02T02:26:03;16.70;;;6.00;;
61358;SDS011;47228;46.762;23.598;2024-03-02T02:28:31;11.30;;;5.70;;
61358;SDS011;47228;46.762;23.598;2024-03-02T02:30:59;12.20;;;5.50;;
61358;SDS011;47228;46.762;23.598;2024-03-02T02:33:28;13.70;;;5.60;;
61358;SDS011;47228;46.762;23.598;2024-03-02T02:35:57;12.30;;;5.60;;
61358;SDS011;47228;46.762;23.598;2024-03-02T02:38:25;13.20;;;5.60;;
61358;SDS011;47228;46.762;23.598;2024-03-02T02:40:53;11.30;;;5.70;;
61358;SDS011;47228;46.762;23.598;2024-03-02T02:43:21;11.30;;;5.50;;
61358;SDS011;47228;46.762;23.598;2024-03-02T02:45:49;13.20;;;5.70;;
61358;SDS011;47228;46.762;23.598;2024-03-02T02:48:17;11.40;;;5.50;;
61358;SDS011;47228;46.762;23.598;2024-03-02T02:50:46;10.50;;;5.90;;
61358;SDS011;47228;46.762;23.598;2024-03-02T02:53:14;11.80;;;6.30;;
61358;SDS011;47228;46.762;23.598;2024-03-02T02:55:42;12.00;;;5.90;;
61358;SDS011;47228;46.762;23.598;2024-03-02T02:58:11;13.90;;;6.10;;
61358;SDS011;47228;46.762;23.598;2024-03-02T03:00:40;11.80;;;6.00;;
61358;SDS011;47228;46.762;23.598;2024-03-02T03:03:08;12.60;;;5.40;;
61358;SDS011;47228;46.762;23.598;2024-03-02T03:05:36;10.30;;;5.60;;
61358;SDS011;47228;46.762;23.598;2024-03-02T03:08:04;13.50;;;5.50;;
61358;SDS011;47228;46.762;23.598;2024-03-02T03:10:33;11.20;;;5.90;;
61358;SDS011;47228;46.762;23.598;2024-03-02T03:13:01;10.80;;;5.70;;
61358;SDS011;47228;46.762;23.598;2024-03-02T03:15:29;13.30;;;6.00;;
61358;SDS011;47228;46.762;23.598;2024-03-02T03:17:57;16.00;;;5.80;;
61358;SDS011;47228;46.762;23.598;2024-03-02T03:20:26;15.30;;;6.10;;
61358;SDS011;47228;46.762;23.598;2024-03-02T03:22:54;13.80;;;6.00;;
61358;SDS011;47228;46.762;23.598;2024-03-02T03:25:22;17.80;;;6.50;;
61358;SDS011;47228;46.762;23.598;2024-03-02T03:27:50;12.20;;;5.70;;
61358;SDS011;47228;46.762;23.598;2024-03-02T03:30:20;19.20;;;5.90;;
61358;SDS011;47228;46.762;23.598;2024-03-02T03:32:48;13.40;;;5.60;;
61358;SDS011;47228;46.762;23.598;2024-03-02T03:35:16;15.10;;;5.20;;
61358;SDS011;47228;46.762;23.598;2024-03-02T03:37:46;16.70;;;6.00;;
61358;SDS011;47228;46.762;23.598;2024-03-02T03:40:14;15.00;;;6.10;;
61358;SDS011;47228;46.762;23.598;2024-03-02T03:42:42;13.80;;;5.40;;
61358;SDS011;47228;46.762;23.598;2024-03-02T03:45:10;12.90;;;5.80;;
61358;SDS011;47228;46.762;23.598;2024-03-02T03:47:39;13.30;;;6.00;;
61358;SDS011;47228;46.762;23.598;2024-03-02T03:50:07;13.50;;;5.80;;
61358;SDS011;47228;46.762;23.598;2024-03-02T03:52:36;12.70;;;6.30;;
61358;SDS011;47228;46.762;23.598;2024-03-02T03:55:04;25.60;;;6.50;;
61358;SDS011;47228;46.762;23.598;2024-03-02T03:57:33;13.20;;;5.90;;
61358;SDS011;47228;46.762;23.598;2024-03-02T04:00:02;20.00;;;5.90;;
61358;SDS011;47228;46.762;23.598;2024-03-02T04:02:31;15.00;;;5.50;;
61358;SDS011;47228;46.762;23.598;2024-03-02T04:04:59;15.30;;;6.00;;
61358;SDS011;47228;46.762;23.598;2024-03-02T04:07:27;13.60;;;5.40;;
61358;SDS011;47228;46.762;23.598;2024-03-02T04:09:55;14.00;;;5.60;;
61358;SDS011;47228;46.762;23.598;2024-03-02T04:12:23;15.50;;;5.60;;
61358;SDS011;47228;46.762;23.598;2024-03-02T04:14:51;11.30;;;5.50;;
61358;SDS011;47228;46.762;23.598;2024-03-02T04:17:20;11.90;;;6.00;;
61358;SDS011;47228;46.762;23.598;2024-03-02T04:19:48;15.60;;;6.20;;
61358;SDS011;47228;46.762;23.598;2024-03-02T04:22:16;13.60;;;6.30;;
61358;SDS011;47228;46.762;23.598;2024-03-02T04:24:51;16.40;;;6.00;;
61358;SDS011;47228;46.762;23.598;2024-03-02T04:27:20;15.20;;;5.40;;
61358;SDS011;47228;46.762;23.598;2024-03-02T04:29:48;13.60;;;6.30;;
61358;SDS011;47228;46.762;23.598;2024-03-02T04:32:16;12.60;;;6.30;;
61358;SDS011;47228;46.762;23.598;2024-03-02T04:34:45;17.30;;;6.70;;
61358;SDS011;47228;46.762;23.598;2024-03-02T04:37:13;17.10;;;6.50;;
61358;SDS011;47228;46.762;23.598;2024-03-02T04:39:42;14.20;;;6.90;;
61358;SDS011;47228;46.762;23.598;2024-03-02T04:42:10;12.80;;;6.10;;
61358;SDS011;47228;46.762;23.598;2024-03-02T04:44:38;14.30;;;6.50;;
61358;SDS011;47228;46.762;23.598;2024-03-02T04:47:06;14.60;;;6.70;;
61358;SDS011;47228;46.762;23.598;2024-03-02T04:49:34;17.10;;;6.80;;
61358;SDS011;47228;46.762;23.598;2024-03-02T04:52:02;14.70;;;6.50;;
61358;SDS011;47228;46.762;23.598;2024-03-02T04:54:31;13.90;;;6.50;;
61358;SDS011;47228;46.762;23.598;2024-03-02T04:56:59;16.50;;;6.80;;
61358;SDS011;47228;46.762;23.598;2024-03-02T04:59:27;18.30;;;7.40;;
61358;SDS011;47228;46.762;23.598;2024-03-02T05:01:55;14.40;;;6.80;;
61358;SDS011;47228;46.762;23.598;2024-03-02T05:04:23;17.70;;;7.10;;
61358;SDS011;47228;46.762;23.598;2024-03-02T05:06:52;14.20;;;7.30;;
61358;SDS011;47228;46.762;23.598;2024-03-02T05:09:22;14.30;;;7.20;;
61358;SDS011;47228;46.762;23.598;2024-03-02T05:11:50;14.50;;;7.70;;
61358;SDS011;47228;46.762;23.598;2024-03-02T05:14:37;21.40;;;8.40;;
61358;SDS011;47228;46.762;23.598;2024-03-02T05:17:06;18.00;;;7.80;;
61358;SDS011;47228;46.762;23.598;2024-03-02T05:19:34;15.10;;;8.20;;
61358;SDS011;47228;46.762;23.598;2024-03-02T05:22:02;20.80;;;8.40;;
61358;SDS011;47228;46.762;23.598;2024-03-02T05:24:31;18.00;;;7.40;;
61358;SDS011;47228;46.762;23.598;2024-03-02T05:26:59;17.30;;;7.80;;
61358;SDS011;47228;46.762;23.598;2024-03-02T05:29:27;17.50;;;7.20;;
61358;SDS011;47228;46.762;23.598;2024-03-02T05:31:55;18.40;;;7.10;;
61358;SDS011;47228;46.762;23.598;2024-03-02T05:34:23;15.80;;;7.20;;
61358;SDS011;47228;46.762;23.598;2024-03-02T05:36:51;18.10;;;7.20;;
61358;SDS011;47228;46.762;23.598;2024-03-02T05:39:20;17.90;;;7.40;;
61358;SDS011;47228;46.762;23.598;2024-03-02T05:41:48;18.40;;;7.90;;
61358;SDS011;47228;46.762;23.598;2024-03-02T05:44:16;18.00;;;7.60;;
61358;SDS011;47228;46.762;23.598;2024-03-02T05:46:45;16.60;;;7.30;;
61358;SDS011;47228;46.762;23.598;2024-03-02T05:49:13;15.90;;;7.50;;
61358;SDS011;47228;46.762;23.598;2024-03-02T05:51:42;15.60;;;7.50;;
61358;SDS011;47228;46.762;23.598;2024-03-02T05:54:10;16.30;;;7.00;;
61358;SDS011;47228;46.762;23.598;2024-03-02T05:56:38;15.50;;;7.20;;
61358;SDS011;47228;46.762;23.598;2024-03-02T05:59:06;12.30;;;6.70;;
61358;SDS011;47228;46.762;23.598;2024-03-02T06:01:45;17.70;;;7.20;;
61358;SDS011;47228;46.762;23.598;2024-03-02T06:04:19;16.70;;;7.00;;
61358;SDS011;47228;46.762;23.598;2024-03-02T06:06:48;17.50;;;7.00;;
61358;SDS011;47228;46.762;23.598;2024-03-02T06:09:17;13.10;;;7.00;;
61358;SDS011;47228;46.762;23.598;2024-03-02T06:11:47;14.60;;;6.60;;
61358;SDS011;47228;46.762;23.598;2024-03-02T06:14:16;14.50;;;7.10;;
61358;SDS011;47228;46.762;23.598;2024-03-02T06:16:44;12.50;;;6.90;;
61358;SDS011;47228;46.762;23.598;2024-03-02T06:19:12;15.70;;;7.00;;
61358;SDS011;47228;46.762;23.598;2024-03-02T06:21:40;17.70;;;7.60;;
61358;SDS011;47228;46.762;23.598;2024-03-02T06:24:09;17.90;;;7.20;;
61358;SDS011;47228;46.762;23.598;2024-03-02T06:26:37;18.90;;;7.70;;
61358;SDS011;47228;46.762;23.598;2024-03-02T06:29:05;21.30;;;8.50;;
61358;SDS011;47228;46.762;23.598;2024-03-02T06:31:33;18.00;;;7.70;;
61358;SDS011;47228;46.762;23.598;2024-03-02T06:34:01;22.60;;;7.60;;
61358;SDS011;47228;46.762;23.598;2024-03-02T06:36:31;17.80;;;8.70;;
61358;SDS011;47228;46.762;23.598;2024-03-02T06:38:59;17.10;;;7.90;;
61358;SDS011;47228;46.762;23.598;2024-03-02T06:41:28;18.20;;;7.90;;
61358;SDS011;47228;46.762;23.598;2024-03-02T06:43:56;13.70;;;6.90;;
61358;SDS011;47228;46.762;23.598;2024-03-02T06:46:28;16.00;;;7.70;;
61358;SDS011;47228;46.762;23.598;2024-03-02T06:48:56;15.10;;;7.70;;
61358;SDS011;47228;46.762;23.598;2024-03-02T06:51:25;17.60;;;7.80;;
61358;SDS011;47228;46.762;23.598;2024-03-02T06:53:53;20.00;;;8.40;;
61358;SDS011;47228;46.762;23.598;2024-03-02T06:56:21;22.60;;;8.10;;
61358;SDS011;47228;46.762;23.598;2024-03-02T06:58:49;24.10;;;8.40;;
61358;SDS011;47228;46.762;23.598;2024-03-02T07:01:17;15.00;;;7.30;;
61358;SDS011;47228;46.762;23.598;2024-03-02T07:03:45;19.20;;;7.60;;
61358;SDS011;47228;46.762;23.598;2024-03-02T07:06:14;17.90;;;8.30;;
61358;SDS011;47228;46.762;23.598;2024-03-02T07:08:42;17.60;;;8.80;;
61358;SDS011;47228;46.762;23.598;2024-03-02T07:11:10;19.90;;;8.30;;
61358;SDS011;47228;46.762;23.598;2024-03-02T07:13:38;16.50;;;8.20;;
61358;SDS011;47228;46.762;23.598;2024-03-02T07:16:06;18.00;;;8.40;;
61358;SDS011;47228;46.762;23.598;2024-03-02T07:18:55;14.40;;;7.50;;
61358;SDS011;47228;46.762;23.598;2024-03-02T07:21:24;18.50;;;7.60;;
61358;SDS011;47228;46.762;23.598;2024-03-02T07:23:53;12.70;;;7.40;;
61358;SDS011;47228;46.762;23.598;2024-03-02T07:26:21;15.30;;;6.80;;
61358;SDS011;47228;46.762;23.598;2024-03-02T07:28:52;15.40;;;6.90;;
61358;SDS011;47228;46.762;23.598;2024-03-02T07:31:20;14.30;;;7.00;;
61358;SDS011;47228;46.762;23.598;2024-03-02T07:33:49;17.90;;;7.40;;
61358;SDS011;47228;46.762;23.598;2024-03-02T07:36:17;19.20;;;7.80;;
61358;SDS011;47228;46.762;23.598;2024-03-02T07:38:47;21.30;;;8.10;;
61358;SDS011;47228;46.762;23.598;2024-03-02T07:41:18;13.90;;;7.20;;
61358;SDS011;47228;46.762;23.598;2024-03-02T07:43:46;20.50;;;7.30;;
61358;SDS011;47228;46.762;23.598;2024-03-02T07:46:14;21.10;;;6.70;;
61358;SDS011;47228;46.762;23.598;2024-03-02T07:48:42;19.70;;;7.80;;
61358;SDS011;47228;46.762;23.598;2024-03-02T07:51:11;14.00;;;7.20;;
61358;SDS011;47228;46.762;23.598;2024-03-02T07:53:39;17.10;;;7.70;;
61358;SDS011;47228;46.762;23.598;2024-03-02T07:56:07;19.60;;;8.40;;
61358;SDS011;47228;46.762;23.598;2024-03-02T07:58:36;16.60;;;7.50;;
61358;SDS011;47228;46.762;23.598;2024-03-02T08:01:04;13.20;;;6.60;;
61358;SDS011;47228;46.762;23.598;2024-03-02T08:03:32;14.10;;;6.60;;
61358;SDS011;47228;46.762;23.598;2024-03-02T08:06:02;14.10;;;7.40;;
61358;SDS011;47228;46.762;23.598;2024-03-02T08:08:30;15.90;;;6.90;;
61358;SDS011;47228;46.762;23.598;2024-03-02T08:10:58;14.50;;;7.20;;
61358;SDS011;47228;46.762;23.598;2024-03-02T08:13:28;15.00;;;7.90;;
61358;SDS011;47228;46.762;23.598;2024-03-02T08:15:56;18.80;;;8.30;;
61358;SDS011;47228;46.762;23.598;2024-03-02T08:18:25;18.00;;;7.30;;
61358;SDS011;47228;46.762;23.598;2024-03-02T08:20:53;13.90;;;6.60;;
61358;SDS011;47228;46.762;23.598;2024-03-02T08:23:21;18.30;;;7.00;;
61358;SDS011;47228;46.762;23.598;2024-03-02T08:25:50;17.20;;;6.90;;
61358;SDS011;47228;46.762;23.598;2024-03-02T08:28:18;16.60;;;6.90;;
61358;SDS011;47228;46.762;23.598;2024-03-02T08:30:47;16.80;;;7.60;;
61358;SDS011;47228;46.762;23.598;2024-03-02T08:33:16;14.60;;;6.90;;
61358;SDS011;47228;46.762;23.598;2024-03-02T08:35:44;20.50;;;7.00;;
61358;SDS011;47228;46.762;23.598;2024-03-02T08:38:12;16.10;;;7.10;;
61358;SDS011;47228;46.762;23.598;2024-03-02T08:40:40;14.30;;;6.90;;
61358;SDS011;47228;46.762;23.598;2024-03-02T08:43:09;13.60;;;7.40;;
61358;SDS011;47228;46.762;23.598;2024-03-02T08:45:37;14.60;;;7.20;;
61358;SDS011;47228;46.762;23.598;2024-03-02T08:48:07;14.00;;;7.40;;
61358;SDS011;47228;46.762;23.598;2024-03-02T08:50:36;17.70;;;7.00;;
61358;SDS011;47228;46.762;23.598;2024-03-02T08:53:04;16.60;;;7.40;;
61358;SDS011;47228;46.762;23.598;2024-03-02T08:55:32;12.80;;;7.00;;
61358;SDS011;47228;46.762;23.598;2024-03-02T08:58:00;15.40;;;8.60;;
61358;SDS011;47228;46.762;23.598;2024-03-02T09:00:29;20.70;;;10.50;;
61358;SDS011;47228;46.762;23.598;2024-03-02T09:02:57;22.00;;;11.20;;
61358;SDS011;47228;46.762;23.598;2024-03-02T09:05:26;21.70;;;12.60;;
61358;SDS011;47228;46.762;23.598;2024-03-02T09:07:54;21.70;;;12.00;;
61358;SDS011;47228;46.762;23.598;2024-03-02T09:10:23;22.80;;;13.60;;
61358;SDS011;47228;46.762;23.598;2024-03-02T09:12:55;21.80;;;11.30;;
61358;SDS011;47228;46.762;23.598;2024-03-02T09:15:23;13.10;;;7.00;;
61358;SDS011;47228;46.762;23.598;2024-03-02T09:17:52;16.40;;;4.80;;
61358;SDS011;47228;46.762;23.598;2024-03-02T09:20:20;8.50;;;3.60;;
61358;SDS011;47228;46.762;23.598;2024-03-02T09:22:48;10.00;;;3.90;;
61358;SDS011;47228;46.762;23.598;2024-03-02T09:25:17;9.20;;;3.70;;
61358;SDS011;47228;46.762;23.598;2024-03-02T09:27:45;11.70;;;3.60;;
61358;SDS011;47228;46.762;23.598;2024-03-02T09:30:13;14.90;;;3.90;;
61358;SDS011;47228;46.762;23.598;2024-03-02T09:32:41;10.80;;;3.50;;
61358;SDS011;47228;46.762;23.598;2024-03-02T09:35:10;9.80;;;3.30;;
61358;SDS011;47228;46.762;23.598;2024-03-02T09:37:39;10.00;;;3.60;;
61358;SDS011;47228;46.762;23.598;2024-03-02T09:40:08;8.80;;;3.80;;
61358;SDS011;47228;46.762;23.598;2024-03-02T09:42:36;9.30;;;3.50;;
61358;SDS011;47228;46.762;23.598;2024-03-02T09:45:06;7.70;;;3.60;;
61358;SDS011;47228;46.762;23.598;2024-03-02T09:47:34;10.10;;;4.10;;
61358;SDS011;47228;46.762;23.598;2024-03-02T09:50:03;12.10;;;4.10;;
61358;SDS011;47228;46.762;23.598;2024-03-02T09:52:31;14.40;;;3.90;;
61358;SDS011;47228;46.762;23.598;2024-03-02T09:55:00;8.60;;;3.70;;
61358;SDS011;47228;46.762;23.598;2024-03-02T09:57:29;8.10;;;3.70;;
61358;SDS011;47228;46.762;23.598;2024-03-02T09:59:57;11.00;;;3.90;;
61358;SDS011;47228;46.762;23.598;2024-03-02T10:02:25;12.90;;;4.00;;
61358;SDS011;47228;46.762;23.598;2024-03-02T10:04:53;10.20;;;3.30;;
61358;SDS011;47228;46.762;23.598;2024-03-02T10:07:21;11.90;;;3.30;;
61358;SDS011;47228;46.762;23.598;2024-03-02T10:09:49;10.60;;;3.40;;
61358;SDS011;47228;46.762;23.598;2024-03-02T10:12:19;8.30;;;3.60;;
61358;SDS011;47228;46.762;23.598;2024-03-02T10:14:48;8.30;;;3.80;;
61358;SDS011;47228;46.762;23.598;2024-03-02T10:17:18;8.60;;;4.00;;
61358;SDS011;47228;46.762;23.598;2024-03-02T10:19:46;12.10;;;4.00;;
61358;SDS011;47228;46.762;23.598;2024-03-02T10:22:15;10.60;;;4.80;;
61358;SDS011;47228;46.762;23.598;2024-03-02T10:24:43;8.10;;;4.30;;
61358;SDS011;47228;46.762;23.598;2024-03-02T10:27:17;11.90;;;4.50;;
61358;SDS011;47228;46.762;23.598;2024-03-02T10:29:50;9.90;;;3.90;;
61358;SDS011;47228;46.762;23.598;2024-03-02T10:32:18;8.30;;;3.60;;
61358;SDS011;47228;46.762;23.598;2024-03-02T10:34:46;11.20;;;3.80;;
61358;SDS011;47228;46.762;23.598;2024-03-02T10:37:15;11.30;;;5.10;;
61358;SDS011;47228;46.762;23.598;2024-03-02T10:39:48;8.70;;;4.20;;
61358;SDS011;47228;46.762;23.598;2024-03-02T10:42:16;8.80;;;3.70;;
61358;SDS011;47228;46.762;23.598;2024-03-02T10:44:46;8.40;;;3.80;;
61358;SDS011;47228;46.762;23.598;2024-03-02T10:47:16;7.70;;;3.30;;
61358;SDS011;47228;46.762;23.598;2024-03-02T10:49:47;7.30;;;3.70;;
61358;SDS011;47228;46.762;23.598;2024-03-02T10:52:19;8.80;;;4.10;;
61358;SDS011;47228;46.762;23.598;2024-03-02T10:54:47;8.00;;;3.60;;
61358;SDS011;47228;46.762;23.598;2024-03-02T10:57:15;9.30;;;3.80;;
61358;SDS011;47228;46.762;23.598;2024-03-02T10:59:52;11.00;;;4.00;;
61358;SDS011;47228;46.762;23.598;2024-03-02T11:02:24;13.10;;;4.60;;
61358;SDS011;47228;46.762;23.598;2024-03-02T11:04:55;10.70;;;4.60;;
61358;SDS011;47228;46.762;23.598;2024-03-02T11:07:23;9.10;;;3.90;;
61358;SDS011;47228;46.762;23.598;2024-03-02T11:09:59;12.20;;;4.10;;
61358;SDS011;47228;46.762;23.598;2024-03-02T11:12:41;8.40;;;3.90;;
61358;SDS011;47228;46.762;23.598;2024-03-02T11:15:26;10.30;;;3.70;;
61358;SDS011;47228;46.762;23.598;2024-03-02T11:17:55;8.80;;;3.60;;
61358;SDS011;47228;46.762;23.598;2024-03-02T11:20:25;9.40;;;3.90;;
61358;SDS011;47228;46.762;23.598;2024-03-02T11:22:57;9.40;;;3.80;;
61358;SDS011;47228;46.762;23.598;2024-03-02T11:25:26;7.70;;;3.50;;
61358;SDS011;47228;46.762;23.598;2024-03-02T11:33:05;9.10;;;3.60;;
61358;SDS011;47228;46.762;23.598;2024-03-02T11:35:43;6.10;;;3.10;;
61358;SDS011;47228;46.762;23.598;2024-03-02T11:38:17;7.90;;;3.30;;
61358;SDS011;47228;46.762;23.598;2024-03-02T11:40:46;10.30;;;4.60;;
61358;SDS011;47228;46.762;23.598;2024-03-02T11:43:14;8.20;;;4.60;;
61358;SDS011;47228;46.762;23.598;2024-03-02T11:45:43;12.20;;;4.70;;
61358;SDS011;47228;46.762;23.598;2024-03-02T11:48:15;9.00;;;4.10;;
61358;SDS011;47228;46.762;23.598;2024-03-02T11:50:48;9.50;;;4.10;;
61358;SDS011;47228;46.762;23.598;2024-03-02T11:53:18;6.80;;;3.90;;
61358;SDS011;47228;46.762;23.598;2024-03-02T11:55:47;9.00;;;3.80;;
61358;SDS011;47228;46.762;23.598;2024-03-02T11:58:17;8.20;;;3.50;;
61358;SDS011;47228;46.762;23.598;2024-03-02T12:00:46;9.00;;;4.30;;
61358;SDS011;47228;46.762;23.598;2024-03-02T12:03:14;10.10;;;4.40;;
61358;SDS011;47228;46.762;23.598;2024-03-02T12:05:43;8.70;;;4.10;;
61358;SDS011;47228;46.762;23.598;2024-03-02T12:08:11;11.30;;;4.00;;
61358;SDS011;47228;46.762;23.598;2024-03-02T12:10:40;7.80;;;4.20;;
61358;SDS011;47228;46.762;23.598;2024-03-02T12:13:09;8.70;;;3.70;;
61358;SDS011;47228;46.762;23.598;2024-03-02T12:15:39;8.20;;;4.00;;
61358;SDS011;47228;46.762;23.598;2024-03-02T12:18:10;11.00;;;4.50;;
61358;SDS011;47228;46.762;23.598;2024-03-02T12:20:38;11.10;;;4.00;;
61358;SDS011;47228;46.762;23.598;2024-03-02T12:23:06;8.80;;;4.70;;
61358;SDS011;47228;46.762;23.598;2024-03-02T12:25:35;11.40;;;4.30;;
61358;SDS011;47228;46.762;23.598;2024-03-02T12:28:03;11.30;;;4.60;;
61358;SDS011;47228;46.762;23.598;2024-03-02T12:30:32;9.50;;;4.00;;
61358;SDS011;47228;46.762;23.598;2024-03-02T12:33:03;10.80;;;4.30;;
61358;SDS011;47228;46.762;23.598;2024-03-02T12:35:32;9.80;;;4.30;;
61358;SDS011;47228;46.762;23.598;2024-03-02T12:38:00;12.00;;;3.80;;
61358;SDS011;47228;46.762;23.598;2024-03-02T12:40:28;11.60;;;4.00;;
61358;SDS011;47228;46.762;23.598;2024-03-02T12:42:59;9.80;;;3.60;;
61358;SDS011;47228;46.762;23.598;2024-03-02T12:45:28;8.10;;;4.00;;
61358;SDS011;47228;46.762;23.598;2024-03-02T12:47:57;5.80;;;3.40;;
61358;SDS011;47228;46.762;23.598;2024-03-02T12:50:25;8.10;;;4.00;;
61358;SDS011;47228;46.762;23.598;2024-03-02T12:52:53;10.70;;;4.30;;
61358;SDS011;47228;46.762;23.598;2024-03-02T12:55:23;10.20;;;4.70;;
61358;SDS011;47228;46.762;23.598;2024-03-02T12:57:52;10.50;;;4.20;;
61358;SDS011;47228;46.762;23.598;2024-03-02T13:00:21;9.10;;;4.40;;
61358;SDS011;47228;46.762;23.598;2024-03-02T13:02:51;9.30;;;4.80;;
61358;SDS011;47228;46.762;23.598;2024-03-02T13:05:20;11.00;;;4.50;;
61358;SDS011;47228;46.762;23.598;2024-03-02T13:07:49;8.90;;;4.60;;
61358;SDS011;47228;46.762;23.598;2024-03-02T13:10:18;9.20;;;4.30;;
61358;SDS011;47228;46.762;23.598;2024-03-02T13:12:46;11.10;;;4.50;;
61358;SDS011;47228;46.762;23.598;2024-03-02T13:15:15;10.00;;;4.40;;
61358;SDS011;47228;46.762;23.598;2024-03-02T13:17:45;13.60;;;4.90;;
61358;SDS011;47228;46.762;23.598;2024-03-02T13:20:16;10.70;;;3.90;;
61358;SDS011;47228;46.762;23.598;2024-03-02T13:22:46;11.80;;;4.50;;
61358;SDS011;47228;46.762;23.598;2024-03-02T13:25:14;10.00;;;4.30;;
61358;SDS011;47228;46.762;23.598;2024-03-02T13:27:42;11.60;;;5.40;;
61358;SDS011;47228;46.762;23.598;2024-03-02T13:30:11;12.00;;;5.20;;
61358;SDS011;47228;46.762;23.598;2024-03-02T13:32:39;10.60;;;5.40;;
61358;SDS011;47228;46.762;23.598;2024-03-02T13:35:07;10.90;;;5.10;;
61358;SDS011;47228;46.762;23.598;2024-03-02T13:37:38;12.00;;;5.00;;
61358;SDS011;47228;46.762;23.598;2024-03-02T13:40:08;10.50;;;5.40;;
61358;SDS011;47228;46.762;23.598;2024-03-02T13:42:41;10.80;;;5.80;;
61358;SDS011;47228;46.762;23.598;2024-03-02T13:45:09;12.60;;;5.90;;
61358;SDS011;47228;46.762;23.598;2024-03-02T13:47:37;10.50;;;5.60;;
61358;SDS011;47228;46.762;23.598;2024-03-02T13:50:05;11.10;;;5.50;;
61358;SDS011;47228;46.762;23.598;2024-03-02T13:52:34;10.90;;;6.00;;
61358;SDS011;47228;46.762;23.598;2024-03-02T13:55:03;11.70;;;5.40;;
61358;SDS011;47228;46.762;23.598;2024-03-02T13:57:31;9.40;;;5.20;;
61358;SDS011;47228;46.762;23.598;2024-03-02T13:59:59;11.10;;;5.40;;
61358;SDS011;47228;46.762;23.598;2024-03-02T14:02:29;9.70;;;4.70;;
61358;SDS011;47228;46.762;23.598;2024-03-02T14:04:57;15.40;;;7.20;;
61358;SDS011;47228;46.762;23.598;2024-03-02T14:07:25;14.00;;;6.80;;
61358;SDS011;47228;46.762;23.598;2024-03-02T14:09:53;13.20;;;6.50;;
61358;SDS011;47228;46.762;23.598;2024-03-02T14:12:21;14.50;;;7.70;;
61358;SDS011;47228;46.762;23.598;2024-03-02T14:14:50;10.80;;;5.20;;
61358;SDS011;47228;46.762;23.598;2024-03-02T14:17:21;13.80;;;5.40;;
61358;SDS011;47228;46.762;23.598;2024-03-02T14:19:49;11.70;;;5.90;;
61358;SDS011;47228;46.762;23.598;2024-03-02T14:22:17;13.80;;;6.80;;
61358;SDS011;47228;46.762;23.598;2024-03-02T14:24:45;12.10;;;6.30;;
61358;SDS011;47228;46.762;23.598;2024-03-02T14:27:15;12.80;;;5.80;;
61358;SDS011;47228;46.762;23.598;2024-03-02T14:30:04;16.10;;;5.90;;
61358;SDS011;47228;46.762;23.598;2024-03-02T14:32:33;12.30;;;6.90;;
61358;SDS011;47228;46.762;23.598;2024-03-02T14:35:01;16.60;;;6.30;;
61358;SDS011;47228;46.762;23.598;2024-03-02T14:37:29;14.40;;;6.60;;
61358;SDS011;47228;46.762;23.598;2024-03-02T14:39:57;10.60;;;6.20;;